Rye Valley, Oregon
Current Conditions -  °F | °C
As of 6:53 AM on Saturday 25 Oct 2014 (Local Time) from KBKE Reporting Station
Clear Clear  
Wind Chill: 41°   Ceiling: Unl
Heat Index: 45°   Visibility: 10mi
Dew Point: 42°   Wind: 8mph
Humidity: 90%   Direction: 130°SE
Pressure: 29.78"   Gusts: NA
Location:  44.4221°N, 117.451°W
Report Text: KBKE 251353Z AUTO 13007KT 10SM CLR 07/06 A2978 RMK AO2 SLP087 T00720056
Loading
Personal Weather Stations






























Interactive Weather Map
Tropical Storm Tracking
New forecast layout! Learn more

10-Day Weather Forecast

Advertisements
Track Severe Weather on mobile